Time;durP1;ratioP1;P1;durP2;ratioP2;P2;SDS_P1;SDS_P2;PMS_P1;PMS_P2;Temp;Humidity;BMP_temperature;BMP_pressure;BME280_temperature;BME280_humidity;BME280_pressure;Samples;Min_cycle;Max_cycle;Signal;HPM_P1;HPM_P2
2021/04/17 00:01:53;;;;;;;4.55;1.38;;;;;;;6.11;55.86;101288.72;5030797;28;20519;-75
2021/04/17 00:04:19;;;;;;;4.32;1.38;;;;;;;6.14;56.34;101293.16;5031080;28;20073;-75
2021/04/17 00:06:45;;;;;;;6.55;1.70;;;;;;;6.13;56.18;101288.75;5038060;28;20125;-75
2021/04/17 00:09:16;;;;;;;7.25;1.63;;;;;;;6.07;57.11;101289.47;5030756;28;20112;-75
2021/04/17 00:11:43;;;;;;;6.72;2.08;;;;;;;6.09;56.82;101285.16;5021259;28;20041;-74
2021/04/17 00:14:14;;;;;;;6.90;1.45;;;;;;;6.10;56.96;101288.66;5017380;28;20030;-74
2021/04/17 00:16:40;;;;;;;3.20;1.23;;;;;;;6.05;56.69;101285.97;5016358;28;20091;-74
2021/04/17 00:19:05;;;;;;;14.82;1.83;;;;;;;6.02;57.47;101282.38;5034839;28;20470;-74
2021/04/17 00:21:31;;;;;;;5.43;1.27;;;;;;;6.02;57.34;101282.38;5033431;28;20037;-75
2021/04/17 00:23:57;;;;;;;4.03;1.20;;;;;;;5.99;57.95;101282.28;5025181;28;20477;-74
2021/04/17 00:26:23;;;;;;;6.07;1.75;;;;;;;6.06;57.69;101286.84;5034654;28;20041;-74
2021/04/17 00:28:49;;;;;;;4.03;1.27;;;;;;;6.05;57.68;101287.66;5034591;28;20408;-74
2021/04/17 00:31:14;;;;;;;4.00;1.20;;;;;;;6.03;58.34;101278.91;5034523;28;20041;-74
2021/04/17 00:33:39;;;;;;;7.18;1.30;;;;;;;6.01;58.46;101288.47;5034385;28;20065;-74
2021/04/17 00:36:05;;;;;;;5.00;1.77;;;;;;;5.98;58.41;101281.41;5034378;28;20075;-74
2021/04/17 00:38:30;;;;;;;9.00;2.17;;;;;;;6.00;58.24;101279.72;5034513;28;20069;-74
2021/04/17 00:40:58;;;;;;;6.05;1.70;;;;;;;6.01;58.45;101291.97;5034351;28;20029;-74
2021/04/17 00:43:23;;;;;;;5.85;2.08;;;;;;;5.96;58.89;101290.97;5034152;28;20033;-73
2021/04/17 00:45:49;;;;;;;5.80;2.08;;;;;;;5.93;59.85;101290.84;5008591;28;20043;-74
2021/04/17 00:48:14;;;;;;;6.47;2.42;;;;;;;5.79;61.53;101292.22;5034228;28;20084;-74
2021/04/17 00:50:41;;;;;;;6.60;2.22;;;;;;;5.82;61.68;101300.19;5034273;28;20061;-74
2021/04/17 00:53:08;;;;;;;6.13;2.05;;;;;;;5.87;61.01;101293.34;5033925;28;20116;-74
2021/04/17 00:55:36;;;;;;;5.53;1.65;;;;;;;5.69;61.87;101299.00;5033374;28;20056;-75
2021/04/17 00:58:02;;;;;;;5.22;1.63;;;;;;;5.59;62.34;101295.22;5034141;28;20520;-74
2021/04/17 01:00:28;;;;;;;4.07;1.02;;;;;;;5.54;62.65;101288.97;5034016;28;20053;-74
2021/04/17 01:03:03;;;;;;;8.55;1.58;;;;;;;5.40;64.23;101295.59;5033723;28;20030;-74
2021/04/17 01:05:31;;;;;;;4.75;1.55;;;;;;;5.45;63.24;101294.00;5041126;28;20124;-74
2021/04/17 01:07:59;;;;;;;5.88;1.50;;;;;;;5.41;63.26;101289.50;5033705;28;20044;-74
2021/04/17 01:10:38;;;;;;;6.70;1.20;;;;;;;5.32;64.60;101291.84;5024497;28;20037;-74
2021/04/17 01:13:06;;;;;;;4.68;1.45;;;;;;;5.32;64.02;101297.09;5033717;28;20056;-75
2021/04/17 01:15:33;;;;;;;5.50;1.67;;;;;;;5.37;64.78;101295.50;5040884;28;20035;-75
2021/04/17 01:18:00;;;;;;;6.47;2.45;;;;;;;5.37;64.84;101291.16;5040887;28;20044;-75
2021/04/17 01:20:42;;;;;;;5.00;1.35;;;;;;;5.34;64.70;101287.56;5033617;28;20033;-75
2021/04/17 01:23:16;;;;;;;4.95;1.55;;;;;;;5.25;65.42;101291.69;5033463;28;20506;-75
2021/04/17 01:25:47;;;;;;;5.75;1.90;;;;;;;5.10;66.95;101296.50;5030098;28;20122;-75
2021/04/17 01:28:15;;;;;;;5.63;1.73;;;;;;;4.99;67.19;101297.94;5020702;28;20049;-75
2021/04/17 01:30:41;;;;;;;6.22;1.80;;;;;;;4.79;67.78;101300.88;5033091;28;20478;-75
2021/04/17 01:33:07;;;;;;;6.57;1.77;;;;;;;4.65;68.75;101309.13;5033176;28;20485;-75
2021/04/17 01:35:33;;;;;;;5.57;1.67;;;;;;;4.67;69.28;101304.84;5033499;28;20044;-75
2021/04/17 01:38:04;;;;;;;3.75;1.60;;;;;;;4.63;70.88;101302.97;5022228;28;20079;-75
2021/04/17 01:40:32;;;;;;;4.85;1.40;;;;;;;4.62;70.76;101307.31;5032718;28;20041;-74
2021/04/17 01:42:58;;;;;;;5.72;1.55;;;;;;;4.59;71.02;101302.88;5033045;28;20088;-75
2021/04/17 01:45:26;;;;;;;3.97;1.25;;;;;;;4.61;71.12;101303.81;5033189;28;20065;-75
2021/04/17 01:47:55;;;;;;;4.55;1.30;;;;;;;4.61;71.42;101306.44;5033219;28;20087;-75
2021/04/17 01:50:23;;;;;;;5.15;1.55;;;;;;;4.62;72.04;101296.84;5023758;28;20030;-75
2021/04/17 01:52:49;;;;;;;5.95;2.33;;;;;;;4.58;71.63;101306.34;5033007;28;20154;-75
2021/04/17 01:55:16;;;;;;;5.78;1.20;;;;;;;4.53;71.37;101301.78;5033027;28;20041;-75
2021/04/17 01:57:42;;;;;;;7.78;1.65;;;;;;;4.49;72.31;101305.16;5023692;28;20040;-75
2021/04/17 02:00:09;;;;;;;4.50;1.90;;;;;;;4.51;72.72;101306.97;5032842;28;20033;-75
2021/04/17 02:02:38;;;;;;;4.75;1.80;;;;;;;4.51;72.76;101308.72;5017475;28;20045;-75
2021/04/17 02:05:04;;;;;;;8.65;1.52;;;;;;;4.47;71.26;101291.16;5031713;28;20037;-75
2021/04/17 02:07:29;;;;;;;5.40;1.15;;;;;;;4.43;71.91;101294.50;5032643;28;20037;-75
2021/04/17 02:09:54;;;;;;;4.35;1.55;;;;;;;4.34;72.63;101295.09;5033871;28;20054;-75
2021/04/17 02:12:20;;;;;;;6.60;1.42;;;;;;;4.31;72.70;101298.50;5030422;28;20037;-75
2021/04/17 02:14:45;;;;;;;3.47;1.02;;;;;;;4.28;73.08;101292.31;5032681;28;20048;-75
2021/04/17 02:17:24;;;;;;;6.40;1.27;;;;;;;4.30;73.40;101283.69;5032690;28;20048;-75
2021/04/17 02:20:03;;;;;;;4.72;1.50;;;;;;;4.34;73.54;101275.09;5023149;28;20080;-75
2021/04/17 02:22:31;;;;;;;5.82;2.30;;;;;;;4.45;73.71;101264.06;5039384;28;20473;-75
2021/04/17 02:24:57;;;;;;;5.85;1.63;;;;;;;4.53;72.97;101260.88;5032482;28;20029;-75
2021/04/17 02:27:22;;;;;;;3.47;1.13;;;;;;;4.56;73.00;101268.81;5031151;28;20048;-75
2021/04/17 02:29:53;;;;;;;5.03;1.73;;;;;;;4.52;73.85;101263.44;5032260;28;20034;-75
2021/04/17 02:32:18;;;;;;;6.10;1.88;;;;;;;4.48;73.04;101261.53;5032045;28;20036;-75
2021/04/17 02:34:44;;;;;;;4.43;1.48;;;;;;;4.47;73.04;101265.91;5039482;28;20031;-75
2021/04/17 02:37:10;;;;;;;5.50;1.48;;;;;;;4.46;73.33;101269.34;5032268;28;20402;-75
2021/04/17 02:39:36;;;;;;;5.03;1.17;;;;;;;4.47;73.15;101263.28;5014699;28;20025;-75
2021/04/17 02:42:01;;;;;;;6.80;1.90;;;;;;;4.45;73.30;101258.84;5031857;28;20032;-75
2021/04/17 02:44:27;;;;;;;4.15;1.42;;;;;;;4.43;72.95;101258.81;5032158;28;20171;-75
2021/04/17 02:46:52;;;;;;;3.60;1.30;;;;;;;4.43;72.19;101248.38;5010942;28;20030;-75
2021/04/17 02:49:17;;;;;;;2.97;1.33;;;;;;;4.46;72.78;101252.78;5012448;28;20052;-75
2021/04/17 02:51:43;;;;;;;6.47;2.58;;;;;;;4.48;72.76;101258.94;5012722;28;20120;-74
2021/04/17 02:54:09;;;;;;;4.78;1.70;;;;;;;4.51;73.08;101245.97;5013221;28;20113;-75
2021/04/17 02:56:35;;;;;;;5.57;1.75;;;;;;;4.47;73.47;101249.31;5004168;28;20037;-75
2021/04/17 02:59:00;;;;;;;6.53;1.63;;;;;;;4.51;73.16;101248.59;5028361;28;20096;-75
2021/04/17 03:01:26;;;;;;;5.22;1.60;;;;;;;4.50;73.35;101242.44;5030497;28;20136;-75
2021/04/17 03:03:51;;;;;;;4.75;1.50;;;;;;;4.52;73.34;101245.13;5025609;28;20112;-75
2021/04/17 03:06:16;;;;;;;3.90;1.45;;;;;;;4.56;73.04;101247.00;5026107;28;20065;-75
2021/04/17 03:08:41;;;;;;;5.68;1.55;;;;;;;4.56;73.30;101240.03;5016588;28;20064;-75
2021/04/17 03:11:07;;;;;;;3.88;1.50;;;;;;;4.59;73.00;101247.09;5031607;28;20033;-75
2021/04/17 03:13:32;;;;;;;4.93;1.50;;;;;;;4.66;73.06;101235.06;5031429;28;20032;-75
2021/04/17 03:15:57;;;;;;;4.53;1.58;;;;;;;4.69;72.74;101241.28;5030297;28;20521;-75
2021/04/17 03:18:23;;;;;;;5.53;2.30;;;;;;;4.65;72.67;101238.53;5031520;28;20033;-75
2021/04/17 03:20:49;;;;;;;4.70;1.77;;;;;;;4.66;73.30;101235.06;5031335;28;20033;-75
2021/04/17 03:23:14;;;;;;;7.53;3.28;;;;;;;4.67;73.60;101231.63;5031390;28;20582;-74
2021/04/17 03:25:40;;;;;;;8.48;3.53;;;;;;;4.75;73.79;101241.47;5031459;28;20041;-74
2021/04/17 03:28:06;;;;;;;7.45;2.75;;;;;;;4.82;73.13;101237.28;5031313;28;20047;-74
2021/04/17 03:30:31;;;;;;;11.52;2.95;;;;;;;4.83;73.08;101234.72;5038483;28;20041;-74
2021/04/17 03:32:58;;;;;;;5.88;1.90;;;;;;;4.79;72.78;101229.34;5031138;28;20027;-75
2021/04/17 03:35:24;;;;;;;5.05;1.45;;;;;;;4.71;73.01;101236.97;5038335;28;20038;-74
2021/04/17 03:37:49;;;;;;;3.13;1.17;;;;;;;4.71;73.52;101238.69;5025901;28;20038;-75
2021/04/17 03:40:15;;;;;;;5.90;1.92;;;;;;;4.70;73.03;101237.81;5026089;28;20030;-75
2021/04/17 03:42:41;;;;;;;4.20;1.42;;;;;;;4.66;73.40;101228.09;5031007;28;20029;-75
2021/04/17 03:45:07;;;;;;;3.17;1.27;;;;;;;4.71;72.99;101234.34;5038333;28;20413;-75
2021/04/17 03:47:34;;;;;;;4.57;1.55;;;;;;;4.64;72.77;101234.13;5031146;28;20515;-75
2021/04/17 03:50:00;;;;;;;4.63;1.42;;;;;;;4.60;73.22;101225.31;5025146;28;20041;-74
2021/04/17 03:52:26;;;;;;;2.75;1.23;;;;;;;4.61;73.26;101232.31;5026022;28;20403;-74
2021/04/17 03:54:51;;;;;;;4.65;1.50;;;;;;;4.55;73.48;101234.75;5024997;28;20041;-75
2021/04/17 03:57:16;;;;;;;3.20;1.20;;;;;;;4.49;73.53;101238.06;5031106;28;20072;-75
2021/04/17 03:59:42;;;;;;;3.13;1.25;;;;;;;4.44;73.81;101231.81;5031169;28;20033;-77
2021/04/17 04:02:07;;;;;;;7.57;1.58;;;;;;;4.39;74.34;101236.91;5031002;28;20037;-75
2021/04/17 04:04:32;;;;;;;7.43;1.70;;;;;;;4.49;74.11;101231.97;5038025;28;20049;-75
2021/04/17 04:06:58;;;;;;;5.13;1.60;;;;;;;4.47;73.75;101238.88;5031086;28;20501;-75
2021/04/17 04:09:23;;;;;;;4.30;1.25;;;;;;;4.46;74.14;101232.75;5030786;28;20030;-75
2021/04/17 04:11:48;;;;;;;5.03;1.35;;;;;;;4.46;73.94;101240.59;5037943;28;20129;-74
2021/04/17 04:14:14;;;;;;;3.95;1.15;;;;;;;4.44;73.87;101238.78;5038237;28;20033;-75
2021/04/17 04:16:39;;;;;;;4.45;0.98;;;;;;;4.43;74.14;101248.38;5038247;28;20493;-77
2021/04/17 04:19:05;;;;;;;2.60;0.90;;;;;;;4.48;74.28;101241.53;5030826;28;20025;-75
2021/04/17 04:21:30;;;;;;;4.93;1.30;;;;;;;4.48;73.74;101238.03;5007236;28;20422;-75
2021/04/17 04:23:56;;;;;;;3.20;1.48;;;;;;;4.53;73.72;101242.56;4990088;28;20723;-74
2021/04/17 04:26:21;;;;;;;3.78;1.30;;;;;;;4.58;73.00;101251.44;4996532;28;20053;-74
2021/04/17 04:28:46;;;;;;;4.63;1.27;;;;;;;4.60;72.89;101256.69;5004336;28;20030;-74
2021/04/17 04:31:12;;;;;;;3.90;1.48;;;;;;;4.62;73.44;101260.25;5007092;28;20031;-76
2021/04/17 04:33:37;;;;;;;3.55;1.40;;;;;;;4.64;72.08;101274.25;5007031;28;20062;-74
2021/04/17 04:36:02;;;;;;;5.03;1.67;;;;;;;4.64;73.16;101257.66;5009132;28;20068;-73
2021/04/17 04:38:28;;;;;;;3.50;1.52;;;;;;;4.75;72.48;101262.38;5002064;28;20042;-73
2021/04/17 04:40:53;;;;;;;5.00;1.30;;;;;;;4.83;71.77;101262.59;5002110;28;20037;-74
2021/04/17 04:43:19;;;;;;;6.13;1.20;;;;;;;4.80;71.61;101266.03;5001116;28;20042;-75
2021/04/17 04:45:44;;;;;;;4.47;1.33;;;;;;;4.69;71.86;101250.84;4999868;28;20046;-75
2021/04/17 04:48:10;;;;;;;3.92;1.70;;;;;;;4.68;72.20;101249.06;5001348;28;20116;-74
2021/04/17 04:50:36;;;;;;;11.10;4.78;;;;;;;4.68;72.41;101244.72;5000882;28;20091;-74
2021/04/17 04:53:02;;;;;;;6.30;2.40;;;;;;;4.63;72.23;101246.31;4999763;28;20053;-74
2021/04/17 04:55:27;;;;;;;5.57;1.60;;;;;;;4.55;72.07;101239.97;5001274;28;20601;-75
2021/04/17 04:57:52;;;;;;;8.35;2.70;;;;;;;4.60;72.23;101241.00;5002906;28;20026;-74
2021/04/17 05:00:18;;;;;;;5.63;2.00;;;;;;;4.57;72.37;101241.81;5001978;28;20498;-74
2021/04/17 05:02:43;;;;;;;7.18;1.67;;;;;;;4.58;72.54;101237.44;4999941;28;20073;-75
2021/04/17 05:05:09;;;;;;;4.57;1.63;;;;;;;4.63;72.64;101232.38;5001857;28;20045;-75
2021/04/17 05:07:35;;;;;;;4.43;1.45;;;;;;;4.63;72.35;101241.09;5004145;28;20034;-75
2021/04/17 05:10:00;;;;;;;4.53;1.52;;;;;;;4.65;72.36;101244.66;5005238;28;20045;-75
2021/04/17 05:12:25;;;;;;;5.60;1.25;;;;;;;4.69;72.32;101241.28;5002840;28;20030;-75
2021/04/17 05:14:51;;;;;;;6.20;1.50;;;;;;;4.78;71.50;101245.88;5003833;28;20096;-75
2021/04/17 05:17:16;;;;;;;8.25;1.65;;;;;;;4.81;71.88;101239.00;5005034;28;20041;-75
2021/04/17 05:19:41;;;;;;;3.85;1.25;;;;;;;4.88;71.54;101231.34;5003459;28;20049;-75
2021/04/17 05:22:08;;;;;;;3.78;1.50;;;;;;;4.87;71.57;101235.69;5002898;28;20080;-74
2021/04/17 05:24:33;;;;;;;6.05;1.73;;;;;;;4.90;71.36;101235.78;5005100;28;20030;-75
2021/04/17 05:26:59;;;;;;;4.28;1.55;;;;;;;4.94;70.89;101239.38;5004021;28;20453;-75
2021/04/17 05:29:24;;;;;;;4.47;1.25;;;;;;;4.89;71.14;101228.75;5004170;28;20032;-75
2021/04/17 05:31:49;;;;;;;4.95;1.75;;;;;;;4.91;70.82;101221.84;5004683;28;20084;-75
2021/04/17 05:34:15;;;;;;;5.50;1.73;;;;;;;4.89;71.36;101218.31;5003218;28;20137;-75
2021/04/17 05:36:40;;;;;;;6.28;1.40;;;;;;;4.98;70.85;101230.78;5003651;28;20505;-74
2021/04/17 05:39:05;;;;;;;4.32;1.90;;;;;;;4.92;71.48;101217.50;5002418;28;20036;-75
2021/04/17 05:41:31;;;;;;;5.32;2.03;;;;;;;4.97;71.53;101221.13;5004365;28;20038;-75
2021/04/17 05:43:56;;;;;;;3.10;1.50;;;;;;;5.00;71.38;101221.22;5003236;28;20038;-73
2021/04/17 05:46:22;;;;;;;4.82;2.10;;;;;;;5.00;71.91;101216.91;5010299;28;20070;-72
2021/04/17 05:48:47;;;;;;;6.65;2.05;;;;;;;4.96;71.66;101216.75;5006876;28;20457;-72
2021/04/17 05:51:13;;;;;;;5.95;2.22;;;;;;;5.04;71.63;101216.13;5011392;28;20033;-72
2021/04/17 05:53:38;;;;;;;7.50;2.33;;;;;;;5.07;71.48;101217.03;5003809;28;20563;-72
2021/04/17 05:56:04;;;;;;;4.70;1.50;;;;;;;5.04;72.01;101215.22;5000997;28;20557;-72
2021/04/17 05:58:29;;;;;;;3.90;1.73;;;;;;;5.06;71.68;101213.56;5003460;28;20037;-72
2021/04/17 06:00:54;;;;;;;3.15;1.60;;;;;;;5.11;71.92;101211.94;5004337;28;20040;-72
2021/04/17 06:03:20;;;;;;;4.78;1.67;;;;;;;5.16;71.80;101214.66;5001965;28;20841;-72
2021/04/17 06:05:45;;;;;;;4.97;1.70;;;;;;;5.13;71.74;101218.09;4999795;28;20084;-73
2021/04/17 06:08:10;;;;;;;4.93;1.83;;;;;;;5.12;71.42;101210.22;5012078;28;20030;-72
2021/04/17 06:10:36;;;;;;;5.78;2.00;;;;;;;5.14;71.75;101211.16;5002533;28;20038;-72
2021/04/17 06:13:02;;;;;;;4.32;1.67;;;;;;;5.18;71.00;101215.59;5020593;28;20038;-72
2021/04/17 06:15:27;;;;;;;5.88;1.70;;;;;;;5.13;71.26;101204.13;5010228;28;20088;-72
2021/04/17 06:17:52;;;;;;;5.45;1.60;;;;;;;5.11;71.43;101209.34;5009841;28;20449;-72
2021/04/17 06:20:18;;;;;;;5.55;1.60;;;;;;;5.08;71.24;101204.00;5011098;28;20551;-71
2021/04/17 06:22:43;;;;;;;5.78;1.70;;;;;;;5.14;71.08;101198.06;5024418;28;20549;-72
2021/04/17 06:25:10;;;;;;;4.65;1.75;;;;;;;5.16;70.73;101205.09;5010556;28;20034;-72
2021/04/17 06:27:36;;;;;;;5.53;1.95;;;;;;;5.23;70.62;101199.16;5009863;28;20034;-72
2021/04/17 06:30:02;;;;;;;5.28;1.60;;;;;;;5.39;70.19;101199.56;5010996;28;20052;-72
2021/04/17 06:32:27;;;;;;;6.93;2.05;;;;;;;5.44;70.03;101182.25;5009096;28;20108;-72
2021/04/17 06:34:53;;;;;;;4.00;1.65;;;;;;;5.43;69.15;101176.13;5009709;28;20030;-72
2021/04/17 06:37:18;;;;;;;4.57;2.83;;;;;;;5.58;69.79;101188.72;5009865;28;20084;-72
2021/04/17 06:39:43;;;;;;;6.00;2.67;;;;;;;5.63;69.25;101187.13;5010239;28;20029;-72
2021/04/17 06:42:12;;;;;;;5.57;1.75;;;;;;;5.70;68.71;101189.00;5007993;28;20402;-72
2021/04/17 06:44:41;;;;;;;5.57;1.80;;;;;;;5.79;68.88;101185.75;5008525;28;20402;-72
2021/04/17 06:47:08;;;;;;;4.53;1.45;;;;;;;5.88;67.80;101185.94;5002612;28;20029;-73
2021/04/17 06:49:35;;;;;;;4.35;1.50;;;;;;;5.95;67.90;101187.03;5002001;28;20041;-73
2021/04/17 06:52:02;;;;;;;7.40;2.25;;;;;;;6.09;67.69;101190.81;5001241;28;20034;-72
2021/04/17 06:54:28;;;;;;;4.78;1.88;;;;;;;6.11;67.16;101188.25;5004619;28;20145;-73
2021/04/17 06:56:53;;;;;;;3.97;1.50;;;;;;;6.23;67.04;101187.63;5003526;28;20046;-73
2021/04/17 06:59:19;;;;;;;7.53;1.95;;;;;;;6.28;66.38;101188.63;5000826;28;20034;-73
2021/04/17 07:01:44;;;;;;;4.75;1.75;;;;;;;6.30;66.49;101184.28;5000993;28;20027;-73
2021/04/17 07:04:09;;;;;;;4.90;1.90;;;;;;;6.42;65.79;101197.69;5002963;28;20113;-73
2021/04/17 07:06:35;;;;;;;6.30;2.13;;;;;;;6.51;65.23;101195.22;5002403;28;20489;-73
2021/04/17 07:09:01;;;;;;;5.30;2.08;;;;;;;6.66;65.29;101193.81;5000676;28;20045;-73
2021/04/17 07:11:26;;;;;;;4.32;1.80;;;;;;;6.77;63.58;101192.28;5000849;28;20391;-73
2021/04/17 07:14:14;;;;;;;4.28;1.85;;;;;;;6.81;64.56;101186.22;5001531;28;20041;-73
2021/04/17 07:16:59;;;;;;;6.55;2.17;;;;;;;6.99;62.93;101189.19;5003135;28;20108;-73
2021/04/17 07:19:44;;;;;;;5.80;2.67;;;;;;;6.98;63.11;101190.06;5003140;28;20120;-73
2021/04/17 07:22:24;;;;;;;4.95;2.00;;;;;;;7.17;63.54;101185.16;5017634;28;20044;-73
2021/04/17 07:24:52;;;;;;;6.55;2.65;;;;;;;7.37;63.39;101189.00;5002937;28;20034;-72
2021/04/17 07:27:32;;;;;;;4.78;1.98;;;;;;;7.47;62.59;101198.81;5001667;28;20087;-72
2021/04/17 07:29:59;;;;;;;5.10;2.30;;;;;;;7.67;62.42;101201.75;4999058;28;20613;-72
2021/04/17 07:32:25;;;;;;;4.93;1.88;;;;;;;7.83;62.37;101192.41;5002596;28;20410;-73
2021/04/17 07:35:15;;;;;;;5.82;1.80;;;;;;;8.04;61.88;101201.47;5002060;28;20049;-73
2021/04/17 07:37:42;;;;;;;5.65;1.92;;;;;;;8.16;60.56;101209.53;5002173;28;20034;-73
2021/04/17 07:40:15;;;;;;;4.97;2.20;;;;;;;8.11;59.65;101188.44;5015365;28;20030;-73
2021/04/17 07:42:40;;;;;;;6.28;1.55;;;;;;;8.14;60.28;101195.47;5000270;28;20486;-73
2021/04/17 07:45:27;;;;;;;5.03;2.17;;;;;;;8.12;58.72;101194.56;5002590;28;20101;-73
2021/04/17 07:47:58;;;;;;;4.30;2.03;;;;;;;8.21;59.51;101194.72;5002448;28;20064;-73
2021/04/17 07:50:30;;;;;;;4.53;1.92;;;;;;;8.23;60.17;101185.09;5002451;28;20062;-73
2021/04/17 07:52:55;;;;;;;6.75;2.10;;;;;;;8.30;61.19;101188.69;5001480;28;20070;-73
2021/04/17 07:55:21;;;;;;;7.28;2.33;;;;;;;8.31;59.52;101185.22;5000224;28;20065;-73
2021/04/17 07:57:54;;;;;;;5.95;2.08;;;;;;;8.40;59.10;101185.34;5002125;28;20037;-73
2021/04/17 08:00:20;;;;;;;5.22;2.03;;;;;;;8.46;58.10;101184.53;5002447;28;20062;-73
2021/04/17 08:02:47;;;;;;;4.85;1.65;;;;;;;8.45;57.98;101188.06;5000542;28;20038;-73
2021/04/17 08:05:14;;;;;;;5.82;1.63;;;;;;;8.46;57.96;101190.72;5000111;28;20036;-73
2021/04/17 08:07:40;;;;;;;4.78;2.25;;;;;;;8.42;59.11;101185.38;4984545;28;20060;-73
2021/04/17 08:10:07;;;;;;;4.95;2.08;;;;;;;8.45;58.86;101186.28;5001697;28;20100;-73
2021/04/17 08:12:35;;;;;;;6.10;2.85;;;;;;;8.48;58.82;101183.69;5000064;28;20109;-72
2021/04/17 08:15:01;;;;;;;11.32;7.20;;;;;;;8.50;58.77;101175.84;5016113;28;20453;-73
2021/04/17 08:17:26;;;;;;;7.32;3.22;;;;;;;8.59;58.46;101181.19;5002413;28;20061;-72
2021/04/17 08:19:56;;;;;;;6.15;2.40;;;;;;;8.68;59.04;101175.19;5000323;28;20106;-72
2021/04/17 08:22:22;;;;;;;7.15;2.33;;;;;;;8.77;58.30;101176.16;4999721;28;20041;-72
2021/04/17 08:24:48;;;;;;;12.18;5.78;;;;;;;8.90;58.15;101184.19;5002035;28;20453;-72
2021/04/17 08:27:14;;;;;;;6.38;3.35;;;;;;;8.94;58.03;101186.03;5016957;28;20069;-73
2021/04/17 08:29:54;;;;;;;5.35;1.98;;;;;;;8.90;57.67;101185.09;4999792;28;20069;-73
2021/04/17 08:32:36;;;;;;;3.47;1.35;;;;;;;8.89;54.14;101191.22;4999713;28;20467;-73
2021/04/17 08:35:04;;;;;;;;;;;;;;;8.74;52.95;101186.66;5000227;28;20049;-73
2021/04/17 08:37:31;;;;;;;4.03;1.50;;;;;;;8.67;54.53;101186.56;5003064;28;19921;-73
2021/04/17 08:39:57;;;;;;;5.30;1.98;;;;;;;8.74;54.44;101184.03;5020813;28;20038;-72
2021/04/17 08:42:44;;;;;;;3.42;1.45;;;;;;;8.87;53.57;101179.78;5005702;28;20073;-72
2021/04/17 08:45:16;;;;;;;7.13;1.52;;;;;;;9.21;52.94;101178.38;5003462;28;20048;-72
2021/04/17 08:47:56;;;;;;;4.37;1.50;;;;;;;9.01;52.06;101174.66;5005608;28;20052;-73
2021/04/17 08:50:32;;;;;;;4.97;1.63;;;;;;;8.99;52.12;101176.41;5005584;28;20781;-72
2021/04/17 08:53:01;;;;;;;4.03;1.98;;;;;;;8.87;53.44;101171.00;5020538;28;20121;-73
2021/04/17 08:55:48;;;;;;;6.28;1.70;;;;;;;8.71;53.03;101186.63;5006148;28;20045;-72
2021/04/17 08:58:18;;;;;;;5.72;2.13;;;;;;;8.67;54.60;101179.56;5003574;28;20062;-72
2021/04/17 09:00:53;;;;;;;5.03;1.77;;;;;;;8.78;53.50;101177.94;5005457;28;20105;-72
2021/04/17 09:03:47;;;;;;;5.13;1.85;;;;;;;8.79;53.31;101184.09;5007036;28;20100;-72
2021/04/17 09:06:24;;;;;;;4.60;1.65;;;;;;;8.49;53.92;101176.72;5008079;28;20053;-71
2021/04/17 09:09:22;;;;;;;4.57;1.85;;;;;;;8.68;54.07;101167.28;5005395;28;20828;-72
2021/04/17 09:12:06;;;;;;;7.28;1.70;;;;;;;8.90;54.23;101168.41;5006554;28;20045;-72
2021/04/17 09:14:32;;;;;;;5.95;1.98;;;;;;;8.97;53.24;101164.97;5009021;28;20557;-72
2021/04/17 09:17:00;;;;;;;4.47;1.58;;;;;;;9.31;53.76;101162.69;5006131;28;20525;-72
2021/04/17 09:19:48;;;;;;;3.08;1.48;;;;;;;9.59;51.08;101164.69;5004346;28;20034;-71
2021/04/17 09:22:26;;;;;;;4.93;2.13;;;;;;;9.32;51.78;101162.69;5008167;28;20061;-71
2021/04/17 09:24:57;;;;;;;5.40;2.15;;;;;;;9.44;52.85;101168.06;5007099;28;20128;-71
2021/04/17 09:27:27;;;;;;;5.15;1.73;;;;;;;9.32;52.22;101161.81;5002773;28;20042;-71
2021/04/17 09:30:04;;;;;;;4.68;1.77;;;;;;;9.43;51.22;101161.03;5006013;28;20777;-71
2021/04/17 09:32:34;;;;;;;4.40;1.60;;;;;;;9.23;52.58;101164.38;5011344;28;20513;-72
2021/04/17 09:35:01;;;;;;;6.38;2.05;;;;;;;9.20;52.46;101165.22;5008859;28;20025;-72
2021/04/17 09:37:33;;;;;;;4.25;1.85;;;;;;;9.22;51.94;101160.81;5026014;28;20041;-72
2021/04/17 09:39:58;;;;;;;5.57;1.80;;;;;;;9.20;52.48;101159.97;5010420;28;20387;-72
2021/04/17 09:42:32;;;;;;;5.35;2.00;;;;;;;9.29;52.62;101153.88;5011887;28;20033;-72
2021/04/17 09:44:58;;;;;;;4.43;1.60;;;;;;;9.47;52.15;101156.66;5010865;28;20042;-72
2021/04/17 09:47:23;;;;;;;5.95;1.85;;;;;;;9.46;51.90;101167.19;5010663;28;20029;-72
2021/04/17 09:49:50;;;;;;;6.75;1.65;;;;;;;9.37;52.18;101168.88;5010216;28;20407;-72
2021/04/17 09:52:19;;;;;;;5.25;2.30;;;;;;;9.58;52.17;101160.25;5010800;28;20101;-72
2021/04/17 09:54:56;;;;;;;5.95;1.88;;;;;;;9.62;50.93;101163.84;5010766;28;20044;-72
2021/04/17 09:57:22;;;;;;;4.20;1.65;;;;;;;9.39;52.03;101159.25;5005454;28;20559;-72
2021/04/17 09:59:55;;;;;;;4.82;2.00;;;;;;;9.51;52.06;101163.75;5002099;28;20034;-71
2021/04/17 10:02:22;;;;;;;5.30;1.70;;;;;;;9.38;51.27;101156.59;5001811;28;20548;-72
2021/04/17 10:04:58;;;;;;;6.80;2.10;;;;;;;9.35;52.03;101159.19;5004077;28;20041;-72
2021/04/17 10:07:24;;;;;;;5.45;1.95;;;;;;;9.54;50.77;101149.72;5004365;28;20045;-71
2021/04/17 10:10:00;;;;;;;6.28;1.80;;;;;;;9.54;51.00;101161.13;5003121;28;20461;-71
2021/04/17 10:12:26;;;;;;;6.55;1.77;;;;;;;9.78;51.03;101157.78;5001968;28;20042;-71
2021/04/17 10:14:52;;;;;;;7.45;1.73;;;;;;;9.92;50.34;101152.59;5002641;28;20084;-72
2021/04/17 10:17:18;;;;;;;4.78;1.58;;;;;;;9.97;50.27;101152.66;5002923;28;20458;-72
2021/04/17 10:19:44;;;;;;;4.43;1.63;;;;;;;9.98;49.43;101157.03;5002717;28;20097;-71
2021/04/17 10:22:12;;;;;;;5.22;1.83;;;;;;;9.99;48.93;101153.53;5001577;28;20034;-72
2021/04/17 10:24:40;;;;;;;5.95;1.90;;;;;;;9.99;49.02;101146.50;5003586;28;20112;-72
2021/04/17 10:27:13;;;;;;;4.75;2.03;;;;;;;10.15;49.30;101149.25;5003935;28;20030;-72
2021/04/17 10:29:48;;;;;;;4.60;2.05;;;;;;;10.13;49.06;101157.13;5003289;28;20038;-71
2021/04/17 10:32:23;;;;;;;6.05;1.80;;;;;;;10.07;49.44;101152.69;5001229;28;20125;-71
2021/04/17 10:34:51;;;;;;;8.07;2.10;;;;;;;10.15;50.31;101150.13;5001516;28;20442;-71
2021/04/17 10:37:23;;;;;;;5.70;2.22;;;;;;;10.16;49.64;101151.00;5003171;28;20044;-72
2021/04/17 10:40:09;;;;;;;7.28;2.20;;;;;;;10.39;49.42;101143.22;5000813;28;20068;-72
2021/04/17 10:43:04;;;;;;;8.90;1.80;;;;;;;10.27;49.35;101149.28;4999564;28;20108;-71
2021/04/17 10:45:30;;;;;;;6.95;2.13;;;;;;;10.25;49.61;101140.50;5002027;28;20225;-72
2021/04/17 10:47:59;;;;;;;5.53;2.90;;;;;;;10.51;49.47;101148.56;5002037;28;20542;-72
2021/04/17 10:50:25;;;;;;;6.47;2.40;;;;;;;10.77;49.14;101151.28;5019316;28;20399;-72
2021/04/17 10:53:02;;;;;;;7.15;2.42;;;;;;;11.10;47.66;101149.59;5000777;28;20030;-72
2021/04/17 10:55:34;;;;;;;6.28;1.95;;;;;;;11.03;46.92;101139.88;5003053;28;20048;-72
2021/04/17 10:58:01;;;;;;;4.88;2.28;;;;;;;10.95;48.60;101139.88;5001801;28;20096;-72
2021/04/17 11:00:35;;;;;;;5.18;1.92;;;;;;;10.97;47.35;101143.41;5001136;28;20458;-72
2021/04/17 11:03:01;;;;;;;4.90;2.13;;;;;;;11.01;47.70;101145.19;5000565;28;20057;-72
2021/04/17 11:05:34;;;;;;;5.95;2.20;;;;;;;11.30;47.03;101141.69;5002844;28;20045;-72
2021/04/17 11:08:01;;;;;;;6.55;2.22;;;;;;;11.20;46.40;101143.44;4999581;28;20049;-72
2021/04/17 11:10:31;;;;;;;4.53;2.40;;;;;;;11.20;47.60;101140.81;5005305;28;20038;-72
2021/04/17 11:12:57;;;;;;;7.75;2.33;;;;;;;11.12;47.29;101145.19;5020601;28;20041;-72
2021/04/17 11:15:27;;;;;;;4.90;1.52;;;;;;;11.17;47.36;101148.72;5002627;28;20088;-72
2021/04/17 11:18:09;;;;;;;4.50;2.13;;;;;;;11.27;47.44;101147.00;5001870;28;20034;-72
2021/04/17 11:20:50;;;;;;;4.43;1.90;;;;;;;10.82;47.45;101148.66;5001628;28;20045;-72
2021/04/17 11:23:28;;;;;;;5.90;2.00;;;;;;;11.27;47.88;101142.59;5001528;28;20042;-73
2021/04/17 11:25:53;;;;;;;5.88;2.30;;;;;;;11.81;46.56;101139.91;5002260;28;20046;-72
2021/04/17 11:28:19;;;;;;;5.40;2.15;;;;;;;12.23;46.04;101122.19;5002183;28;20036;-72
2021/04/17 11:30:44;;;;;;;6.43;2.30;;;;;;;12.10;44.71;101131.94;4999209;28;20038;-72
2021/04/17 11:33:10;;;;;;;7.78;2.42;;;;;;;12.20;45.75;101128.38;5001808;28;20505;-72
2021/04/17 11:35:36;;;;;;;6.20;1.80;;;;;;;12.62;45.54;101126.44;5003970;28;20037;-72
2021/04/17 11:38:01;;;;;;;5.53;2.45;;;;;;;13.04;44.10;101124.41;5001464;28;20383;-72